createdAt,value
2023-05-08T00:00:13.870Z,47.45
2023-05-08T00:00:46.423Z,47.50
2023-05-08T00:01:21.382Z,47.71
2023-05-08T00:01:56.311Z,47.55
2023-05-08T00:02:28.734Z,47.59
2023-05-08T00:03:01.351Z,47.49
2023-05-08T00:03:36.662Z,47.49
2023-05-08T00:04:09.209Z,47.89
2023-05-08T00:04:41.714Z,47.56
2023-05-08T00:05:16.697Z,48.02
2023-05-08T00:05:49.015Z,47.66
2023-05-08T00:06:21.398Z,47.86
2023-05-08T00:06:56.372Z,47.57
2023-05-08T00:07:28.689Z,47.94
2023-05-08T00:08:01.764Z,47.91
2023-05-08T00:08:36.814Z,47.83
2023-05-08T00:09:09.119Z,48.01
2023-05-08T00:09:41.414Z,47.97
2023-05-08T00:10:16.423Z,47.72
2023-05-08T00:10:48.781Z,47.77
2023-05-08T00:11:21.455Z,48.22
2023-05-08T00:11:56.366Z,47.80
2023-05-08T00:12:28.750Z,48.20
2023-05-08T00:13:01.156Z,47.73
2023-05-08T00:13:36.165Z,48.30
2023-05-08T00:14:08.548Z,48.09
2023-05-08T00:14:40.880Z,48.02
2023-05-08T00:15:15.850Z,48.04
2023-05-08T00:15:48.184Z,48.28
2023-05-08T00:16:23.245Z,47.84
2023-05-08T00:16:55.607Z,47.98
2023-05-08T00:17:30.609Z,47.79
2023-05-08T00:18:03.013Z,47.98
2023-05-08T00:18:36.131Z,48.22
2023-05-08T00:19:11.550Z,47.71
2023-05-08T00:19:43.860Z,47.95
2023-05-08T00:20:16.177Z,48.10
2023-05-08T00:20:48.603Z,48.16
2023-05-08T00:21:23.685Z,48.03
2023-05-08T00:21:56.148Z,47.63
2023-05-08T00:22:28.569Z,48.13
2023-05-08T00:23:03.510Z,47.91
2023-05-08T00:23:35.956Z,48.07
2023-05-08T00:24:08.567Z,48.02
2023-05-08T00:24:43.487Z,48.14
2023-05-08T00:25:15.915Z,47.92
2023-05-08T00:25:48.250Z,48.26
2023-05-08T00:26:23.420Z,48.26
2023-05-08T00:26:56.107Z,47.96
2023-05-08T00:27:28.469Z,47.83
2023-05-08T00:28:03.918Z,48.06
2023-05-08T00:28:36.375Z,47.91
2023-05-08T00:29:08.782Z,48.26
2023-05-08T00:29:44.223Z,48.16
2023-05-08T00:30:17.153Z,48.13
2023-05-08T00:30:49.571Z,47.84
2023-05-08T00:31:27.123Z,48.05
2023-05-08T00:31:59.535Z,47.83
2023-05-08T00:32:31.893Z,48.32
2023-05-08T00:33:04.737Z,47.79
2023-05-08T00:33:39.805Z,47.99
2023-05-08T00:34:12.122Z,48.12
2023-05-08T00:34:44.462Z,47.78
2023-05-08T00:35:16.797Z,48.22
2023-05-08T00:35:51.763Z,48.12
2023-05-08T00:36:24.090Z,47.79
2023-05-08T00:36:56.944Z,48.19
2023-05-08T00:37:31.894Z,48.19
2023-05-08T00:38:04.302Z,47.76
2023-05-08T00:38:37.391Z,48.02
2023-05-08T00:39:12.803Z,47.78
2023-05-08T00:39:45.153Z,48.26
2023-05-08T00:40:17.478Z,48.24
2023-05-08T00:40:49.791Z,48.24
2023-05-08T00:41:24.729Z,47.80
2023-05-08T00:41:57.086Z,47.75
2023-05-08T00:42:29.511Z,47.96
2023-05-08T00:43:01.948Z,48.20
2023-05-08T00:43:37.884Z,47.90
2023-05-08T00:44:10.783Z,48.15
2023-05-08T00:44:43.142Z,47.75
2023-05-08T00:45:15.479Z,47.81
2023-05-08T00:45:50.709Z,48.14
2023-05-08T00:46:25.746Z,48.16
2023-05-08T00:46:58.186Z,48.04
2023-05-08T00:47:33.207Z,48.08
2023-05-08T00:48:06.211Z,48.14
2023-05-08T00:48:39.146Z,47.92
2023-05-08T00:49:14.758Z,48.12
2023-05-08T00:49:47.099Z,48.06
2023-05-08T00:50:20.217Z,47.91
2023-05-08T00:50:56.213Z,47.83
2023-05-08T00:51:28.819Z,48.09
2023-05-08T00:52:01.334Z,47.59
2023-05-08T00:52:36.774Z,47.81
2023-05-08T00:53:09.099Z,47.85
2023-05-08T00:53:43.429Z,47.66
2023-05-08T00:54:18.612Z,47.80
2023-05-08T00:54:51.009Z,47.63
2023-05-08T00:55:23.428Z,48.07
2023-05-08T00:55:58.437Z,47.90
2023-05-08T00:56:31.179Z,47.71
2023-05-08T00:57:04.340Z,47.88
2023-05-08T00:57:39.422Z,47.86
2023-05-08T00:58:13.133Z,47.86
2023-05-08T00:58:45.867Z,47.90
2023-05-08T00:59:21.305Z,48.02
2023-05-08T00:59:54.287Z,47.98
2023-05-08T01:00:27.192Z,48.14
2023-05-08T01:01:03.878Z,47.87
2023-05-08T01:01:39.554Z,47.56
2023-05-08T01:02:12.530Z,48.00
2023-05-08T01:02:47.810Z,48.21
2023-05-08T01:03:21.482Z,48.24
2023-05-08T01:03:54.358Z,48.00
2023-05-08T01:04:29.865Z,48.00
2023-05-08T01:05:03.386Z,47.96
2023-05-08T01:05:36.701Z,47.56
2023-05-08T01:06:11.930Z,47.70
2023-05-08T01:06:44.260Z,48.02
2023-05-08T01:07:18.330Z,47.82
2023-05-08T01:07:53.681Z,47.94
2023-05-08T01:08:26.085Z,48.12
2023-05-08T01:08:59.054Z,48.00
2023-05-08T01:09:34.717Z,48.19
2023-05-08T01:10:08.332Z,47.71
2023-05-08T01:10:47.577Z,48.14
2023-05-08T01:11:28.071Z,47.66
2023-05-08T01:12:10.937Z,47.70
2023-05-08T01:12:57.388Z,47.91
2023-05-08T01:13:37.859Z,48.11
2023-05-08T01:14:16.296Z,47.68
2023-05-08T01:15:02.636Z,47.71
2023-05-08T01:15:39.601Z,47.92
2023-05-08T01:16:16.416Z,48.11
2023-05-08T01:17:03.410Z,48.07
2023-05-08T01:17:44.038Z,48.10
2023-05-08T01:18:24.571Z,47.68
2023-05-08T01:19:03.221Z,47.95
2023-05-08T01:20:02.459Z,47.94
2023-05-08T01:20:40.671Z,47.79
2023-05-08T01:21:18.101Z,47.78
2023-05-08T01:21:55.419Z,47.83
2023-05-08T01:22:52.853Z,47.51
2023-05-08T01:23:40.082Z,48.18
2023-05-08T01:24:43.967Z,47.76
2023-05-08T01:25:41.894Z,48.00
2023-05-08T01:26:43.057Z,47.82
2023-05-08T01:27:38.727Z,48.23
2023-05-08T01:28:39.232Z,48.02
2023-05-08T01:29:39.773Z,47.89
2023-05-08T01:30:24.772Z,47.92
2023-05-08T01:31:11.598Z,47.90
2023-05-08T01:31:54.981Z,48.43
2023-05-08T01:32:35.463Z,48.30
2023-05-08T01:33:11.710Z,48.17
2023-05-08T01:33:48.114Z,48.14
2023-05-08T01:34:25.816Z,48.26
2023-05-08T01:35:03.981Z,48.21
2023-05-08T01:35:45.757Z,47.90
2023-05-08T01:36:25.190Z,47.90
2023-05-08T01:37:01.288Z,48.02
2023-05-08T01:37:37.559Z,48.12
2023-05-08T01:38:18.800Z,48.09
2023-05-08T01:38:56.286Z,48.09
2023-05-08T01:39:35.269Z,48.14
2023-05-08T01:40:16.294Z,48.12
2023-05-08T01:40:53.066Z,48.38
2023-05-08T01:41:27.661Z,48.11
2023-05-08T01:42:07.914Z,48.14
2023-05-08T01:42:46.030Z,47.83
2023-05-08T01:43:28.485Z,48.32
2023-05-08T01:44:11.482Z,48.22
2023-05-08T01:44:48.151Z,48.03
2023-05-08T01:45:26.595Z,48.20
2023-05-08T01:46:02.558Z,48.19
2023-05-08T01:46:37.595Z,48.21
2023-05-08T01:47:11.678Z,48.05
2023-05-08T01:47:50.608Z,48.17
2023-05-08T01:48:28.641Z,47.97
2023-05-08T01:49:06.973Z,48.30
2023-05-08T01:49:41.368Z,48.21
2023-05-08T01:50:19.776Z,48.24
2023-05-08T01:50:57.432Z,48.28
2023-05-08T01:51:34.139Z,48.36
2023-05-08T01:52:10.781Z,47.97
2023-05-08T01:52:46.068Z,47.86
2023-05-08T01:53:23.838Z,48.33
2023-05-08T01:54:01.836Z,48.13
2023-05-08T01:54:39.440Z,48.21
2023-05-08T01:55:15.061Z,47.88
2023-05-08T01:55:52.149Z,48.08
2023-05-08T01:56:25.234Z,48.27
2023-05-08T01:56:59.130Z,47.85
2023-05-08T01:57:36.363Z,47.92
2023-05-08T01:58:10.292Z,48.16
2023-05-08T01:58:43.021Z,48.13
2023-05-08T01:59:20.204Z,48.33
2023-05-08T01:59:52.850Z,47.87
2023-05-08T02:00:26.181Z,48.07
2023-05-08T02:01:02.378Z,48.04
2023-05-08T02:01:35.437Z,47.84
2023-05-08T02:02:09.327Z,48.36
2023-05-08T02:02:44.854Z,48.04
2023-05-08T02:03:21.496Z,47.97
2023-05-08T02:03:57.282Z,48.26
2023-05-08T02:04:30.371Z,47.84
2023-05-08T02:05:05.075Z,47.88
2023-05-08T02:05:41.263Z,47.88
2023-05-08T02:06:16.982Z,47.73
2023-05-08T02:06:51.892Z,48.01
2023-05-08T02:07:27.119Z,47.78
2023-05-08T02:07:59.519Z,48.02
2023-05-08T02:08:32.300Z,48.26
2023-05-08T02:09:07.577Z,47.85
2023-05-08T02:09:41.938Z,48.00
2023-05-08T02:10:14.692Z,47.78
2023-05-08T02:10:50.787Z,48.00
2023-05-08T02:11:24.888Z,47.93
2023-05-08T02:11:57.739Z,47.49
2023-05-08T02:12:31.165Z,47.67
2023-05-08T02:13:07.698Z,48.14
2023-05-08T02:13:40.657Z,47.66
2023-05-08T02:14:14.398Z,48.16
2023-05-08T02:14:51.666Z,47.65
2023-05-08T02:15:25.480Z,47.94
2023-05-08T02:15:58.845Z,48.16
2023-05-08T02:16:34.232Z,48.21
2023-05-08T02:17:09.656Z,47.97
2023-05-08T02:17:42.746Z,48.24
2023-05-08T02:18:18.962Z,48.20
2023-05-08T02:18:55.723Z,47.94
2023-05-08T02:19:29.790Z,47.80
2023-05-08T02:20:06.393Z,47.70
2023-05-08T02:20:39.513Z,47.90
2023-05-08T02:21:15.569Z,47.58
2023-05-08T02:21:48.995Z,48.17
2023-05-08T02:22:22.546Z,47.68
2023-05-08T02:22:57.650Z,48.08
2023-05-08T02:23:30.531Z,47.84
2023-05-08T02:24:04.121Z,48.09
2023-05-08T02:24:40.122Z,47.89
2023-05-08T02:25:14.826Z,47.90
2023-05-08T02:25:47.799Z,48.12
2023-05-08T02:26:24.410Z,47.69
2023-05-08T02:26:57.491Z,47.99
2023-05-08T02:27:31.638Z,47.47
2023-05-08T02:28:06.793Z,47.72
2023-05-08T02:28:39.157Z,47.90
2023-05-08T02:29:11.742Z,48.16
2023-05-08T02:29:48.258Z,48.09
2023-05-08T02:30:22.545Z,47.90
2023-05-08T02:30:55.022Z,48.14
2023-05-08T02:31:31.189Z,47.72
2023-05-08T02:32:04.571Z,48.08
2023-05-08T02:32:37.257Z,48.17
2023-05-08T02:33:13.842Z,47.86
2023-05-08T02:33:46.839Z,47.62
2023-05-08T02:34:22.100Z,47.98
2023-05-08T02:35:03.127Z,47.85
2023-05-08T02:35:37.526Z,47.64
2023-05-08T02:36:11.882Z,47.90
2023-05-08T02:36:46.925Z,48.04
2023-05-08T02:37:20.518Z,47.87
2023-05-08T02:37:54.608Z,47.62
2023-05-08T02:38:30.045Z,47.85
2023-05-08T02:39:03.801Z,47.64
2023-05-08T02:39:38.808Z,47.91
2023-05-08T02:40:15.333Z,48.09
2023-05-08T02:40:50.221Z,48.07
2023-05-08T02:41:23.748Z,47.68
2023-05-08T02:41:58.715Z,48.11
2023-05-08T02:42:31.343Z,48.05
2023-05-08T02:43:04.744Z,48.07
2023-05-08T02:43:39.731Z,47.93
2023-05-08T02:44:12.901Z,47.89
2023-05-08T02:44:45.257Z,47.78
2023-05-08T02:45:20.565Z,48.00
2023-05-08T02:45:57.889Z,48.10
2023-05-08T02:46:39.641Z,48.06
2023-05-08T02:47:21.485Z,47.95
2023-05-08T02:47:59.684Z,48.09
2023-05-08T02:48:37.725Z,47.75
2023-05-08T02:49:13.934Z,47.75
2023-05-08T02:49:53.545Z,47.85
2023-05-08T02:50:34.078Z,47.79
2023-05-08T02:51:15.750Z,47.89
2023-05-08T02:51:54.191Z,47.80
2023-05-08T02:52:32.404Z,48.07
2023-05-08T02:53:08.818Z,48.28
2023-05-08T02:53:46.211Z,48.03
2023-05-08T02:54:28.548Z,47.80
2023-05-08T02:55:03.758Z,47.97
2023-05-08T02:55:41.356Z,48.02
2023-05-08T02:56:23.251Z,47.80
2023-05-08T02:56:58.908Z,47.87
2023-05-08T02:57:40.905Z,48.00
2023-05-08T02:58:18.012Z,48.24
2023-05-08T02:59:00.503Z,47.68
2023-05-08T02:59:37.948Z,47.83
2023-05-08T03:00:18.609Z,48.03
2023-05-08T03:00:57.440Z,48.31
2023-05-08T03:01:33.960Z,48.07
2023-05-08T03:02:12.859Z,47.91
2023-05-08T03:02:50.267Z,48.33
2023-05-08T03:03:28.047Z,48.36
2023-05-08T03:04:04.911Z,47.80
2023-05-08T03:04:40.555Z,48.32
2023-05-08T03:05:22.306Z,47.83
2023-05-08T03:05:57.702Z,48.27
2023-05-08T03:06:34.452Z,48.07
2023-05-08T03:07:07.242Z,48.05
2023-05-08T03:07:45.265Z,47.83
2023-05-08T03:08:21.593Z,48.22
2023-05-08T03:08:57.895Z,48.10
2023-05-08T03:09:40.047Z,48.06
2023-05-08T03:10:15.720Z,48.07
2023-05-08T03:10:51.552Z,48.02
2023-05-08T03:11:31.650Z,47.83
2023-05-08T03:12:10.686Z,48.06
2023-05-08T03:12:46.061Z,48.25
2023-05-08T03:13:22.360Z,48.19
2023-05-08T03:13:57.918Z,48.09
2023-05-08T03:14:31.060Z,47.97
2023-05-08T03:15:10.088Z,48.30
2023-05-08T03:15:45.311Z,48.07
2023-05-08T03:16:20.801Z,48.27
2023-05-08T03:16:58.418Z,47.75
2023-05-08T03:17:33.522Z,48.05
2023-05-08T03:18:09.866Z,48.02
2023-05-08T03:18:48.248Z,48.08
2023-05-08T03:19:25.030Z,47.68
2023-05-08T03:20:00.870Z,47.90
2023-05-08T03:20:44.996Z,47.99
2023-05-08T03:21:19.274Z,48.15
2023-05-08T03:21:52.759Z,48.00
2023-05-08T03:22:28.794Z,47.97
2023-05-08T03:23:01.636Z,48.00
2023-05-08T03:23:34.691Z,48.16
2023-05-08T03:24:11.387Z,48.04
2023-05-08T03:24:44.807Z,48.21
2023-05-08T03:25:18.685Z,47.80
2023-05-08T03:25:54.657Z,47.75
2023-05-08T03:26:27.051Z,48.14
2023-05-08T03:26:59.773Z,48.12
2023-05-08T03:27:35.940Z,47.71
2023-05-08T03:28:08.628Z,48.09
2023-05-08T03:28:41.086Z,47.88
2023-05-08T03:29:16.871Z,47.94
2023-05-08T03:29:50.868Z,48.10
2023-05-08T03:30:24.630Z,48.07
2023-05-08T03:31:08.632Z,48.11
2023-05-08T03:31:43.283Z,47.73
2023-05-08T03:32:16.800Z,47.84
2023-05-08T03:32:52.982Z,47.84
2023-05-08T03:33:26.445Z,48.07
2023-05-08T03:33:59.220Z,48.12
2023-05-08T03:34:36.256Z,47.91
2023-05-08T03:35:09.863Z,47.65
2023-05-08T03:35:45.870Z,47.70
2023-05-08T03:36:21.615Z,47.73
2023-05-08T03:36:54.304Z,47.68
2023-05-08T03:37:27.740Z,48.09
2023-05-08T03:38:03.021Z,47.80
2023-05-08T03:38:36.098Z,47.98
2023-05-08T03:39:08.857Z,47.90
2023-05-08T03:39:43.957Z,47.95
2023-05-08T03:40:16.452Z,47.69
2023-05-08T03:40:49.552Z,48.03
2023-05-08T03:41:25.049Z,47.70
2023-05-08T03:41:57.509Z,48.07
2023-05-08T03:42:31.734Z,48.04
2023-05-08T03:43:09.399Z,47.57
2023-05-08T03:43:42.145Z,47.67
2023-05-08T03:44:16.166Z,47.56
2023-05-08T03:44:49.197Z,47.57
2023-05-08T03:45:24.329Z,48.01
2023-05-08T03:45:57.132Z,47.78
2023-05-08T03:46:31.580Z,47.78
2023-05-08T03:47:06.900Z,48.02
2023-05-08T03:47:39.532Z,47.63
2023-05-08T03:48:12.125Z,47.62
2023-05-08T03:48:47.529Z,48.08
2023-05-08T03:49:24.322Z,47.83
2023-05-08T03:50:00.974Z,47.85
2023-05-08T03:50:39.655Z,47.61
2023-05-08T03:51:17.882Z,47.62
2023-05-08T03:51:50.634Z,47.85
2023-05-08T03:52:23.042Z,47.76
2023-05-08T03:52:58.264Z,47.87
2023-05-08T03:53:31.115Z,47.88
2023-05-08T03:54:06.260Z,47.85
2023-05-08T03:54:39.702Z,47.81
2023-05-08T03:55:12.093Z,47.55
2023-05-08T03:55:47.362Z,47.79
2023-05-08T03:56:21.159Z,48.05
2023-05-08T03:56:54.483Z,47.90
2023-05-08T03:57:31.094Z,48.02
2023-05-08T03:58:08.290Z,48.11
2023-05-08T03:58:49.242Z,48.06
2023-05-08T03:59:33.351Z,47.83
2023-05-08T04:00:10.008Z,47.85
2023-05-08T04:01:01.190Z,47.85
2023-05-08T04:01:43.913Z,47.95
2023-05-08T04:02:23.382Z,47.81
2023-05-08T04:03:09.474Z,47.66
2023-05-08T04:03:59.775Z,47.79
2023-05-08T04:04:40.153Z,47.56
2023-05-08T04:05:19.165Z,47.73
2023-05-08T04:06:01.089Z,47.92
2023-05-08T04:06:49.522Z,47.88
2023-05-08T04:07:32.229Z,47.82
2023-05-08T04:08:08.339Z,47.63
2023-05-08T04:08:45.125Z,47.64
2023-05-08T04:09:24.895Z,47.61
2023-05-08T04:10:00.838Z,47.78
2023-05-08T04:10:36.230Z,47.42
2023-05-08T04:11:17.648Z,47.67
2023-05-08T04:11:59.658Z,47.36
2023-05-08T04:12:37.758Z,47.44
2023-05-08T04:13:16.441Z,47.39
2023-05-08T04:13:55.169Z,47.78
2023-05-08T04:14:32.695Z,47.53
2023-05-08T04:15:10.776Z,47.56
2023-05-08T04:15:49.584Z,47.85
2023-05-08T04:16:25.276Z,47.50
2023-05-08T04:17:05.973Z,47.55
2023-05-08T04:17:42.476Z,47.73
2023-05-08T04:18:18.322Z,47.59
2023-05-08T04:18:54.024Z,47.48
2023-05-08T04:19:29.386Z,47.40
2023-05-08T04:20:05.073Z,47.41
2023-05-08T04:20:43.223Z,47.75
2023-05-08T04:21:23.006Z,47.75
2023-05-08T04:22:00.150Z,47.57
2023-05-08T04:22:36.446Z,47.63
2023-05-08T04:23:10.062Z,47.75
2023-05-08T04:23:43.260Z,47.76
2023-05-08T04:24:18.572Z,47.39
2023-05-08T04:24:52.877Z,47.63
2023-05-08T04:25:26.455Z,47.31
2023-05-08T04:26:05.159Z,47.30
2023-05-08T04:26:38.255Z,47.51
2023-05-08T04:27:11.252Z,47.73
2023-05-08T04:27:47.093Z,47.43
2023-05-08T04:28:19.723Z,47.72
2023-05-08T04:28:52.449Z,47.73
2023-05-08T04:29:25.160Z,47.66
2023-05-08T04:30:00.233Z,47.29
2023-05-08T04:30:33.172Z,47.35
2023-05-08T04:31:05.737Z,47.54
2023-05-08T04:31:41.768Z,47.46
2023-05-08T04:32:14.398Z,47.51
2023-05-08T04:32:47.458Z,47.49
2023-05-08T04:33:24.113Z,47.50
2023-05-08T04:33:57.229Z,47.55
2023-05-08T04:34:29.797Z,47.33
2023-05-08T04:35:05.383Z,47.71
2023-05-08T04:35:37.787Z,47.73
2023-05-08T04:36:12.693Z,47.53
2023-05-08T04:36:48.808Z,47.71
2023-05-08T04:37:28.619Z,47.28
2023-05-08T04:38:03.607Z,47.27
2023-05-08T04:38:39.676Z,47.73
2023-05-08T04:39:12.571Z,47.47
2023-05-08T04:39:45.079Z,47.75
2023-05-08T04:40:20.645Z,47.49
2023-05-08T04:40:53.117Z,47.65
2023-05-08T04:41:26.494Z,47.47
2023-05-08T04:42:03.896Z,47.62
2023-05-08T04:42:39.882Z,47.42
2023-05-08T04:43:12.273Z,47.23
2023-05-08T04:43:47.217Z,47.37
2023-05-08T04:44:19.789Z,47.42
2023-05-08T04:44:52.240Z,47.25
2023-05-08T04:45:27.860Z,47.45
2023-05-08T04:46:00.246Z,47.46
2023-05-08T04:46:32.730Z,47.42
2023-05-08T04:47:07.950Z,47.38
2023-05-08T04:47:40.305Z,47.75
2023-05-08T04:48:12.723Z,47.57
2023-05-08T04:48:47.671Z,47.64
2023-05-08T04:49:20.013Z,47.80
2023-05-08T04:49:52.433Z,47.85
2023-05-08T04:50:27.498Z,47.57
2023-05-08T04:50:59.915Z,47.83
2023-05-08T04:51:32.508Z,47.55
2023-05-08T04:52:08.244Z,47.85
2023-05-08T04:52:43.348Z,47.67
2023-05-08T04:53:16.226Z,47.39
2023-05-08T04:53:51.196Z,47.35
2023-05-08T04:54:23.850Z,47.64
2023-05-08T04:54:56.160Z,47.78
2023-05-08T04:55:31.236Z,47.60
2023-05-08T04:56:03.942Z,47.62
2023-05-08T04:56:36.379Z,47.40
2023-05-08T04:57:11.328Z,47.32
2023-05-08T04:57:44.749Z,47.74
2023-05-08T04:58:17.560Z,47.37
2023-05-08T04:58:52.514Z,47.54
2023-05-08T04:59:25.329Z,47.37
2023-05-08T04:59:58.144Z,47.67
2023-05-08T05:00:33.563Z,47.42
2023-05-08T05:01:06.344Z,47.32
2023-05-08T05:01:39.170Z,47.54
2023-05-08T05:02:14.157Z,47.72
2023-05-08T05:02:46.664Z,47.26
2023-05-08T05:03:19.092Z,47.48
2023-05-08T05:03:54.085Z,47.68
2023-05-08T05:04:26.441Z,47.73
2023-05-08T05:05:01.561Z,47.72
2023-05-08T05:05:38.980Z,47.52
2023-05-08T05:06:12.473Z,47.32
2023-05-08T05:06:44.874Z,47.35
2023-05-08T05:07:20.533Z,47.71
2023-05-08T05:07:55.481Z,47.41
2023-05-08T05:08:28.225Z,47.28
2023-05-08T05:09:05.007Z,47.60
2023-05-08T05:09:38.903Z,47.62
2023-05-08T05:10:11.553Z,47.44
2023-05-08T05:10:46.481Z,47.54
2023-05-08T05:11:19.041Z,47.42
2023-05-08T05:11:51.377Z,47.60
2023-05-08T05:12:26.780Z,47.83
2023-05-08T05:12:59.256Z,47.58
2023-05-08T05:13:32.067Z,47.85
2023-05-08T05:14:07.440Z,47.86
2023-05-08T05:14:40.917Z,47.78
2023-05-08T05:15:13.853Z,47.52
2023-05-08T05:15:51.566Z,47.78
2023-05-08T05:16:23.973Z,47.57
2023-05-08T05:16:59.201Z,47.73
2023-05-08T05:17:31.776Z,47.50
2023-05-08T05:18:04.962Z,47.66
2023-05-08T05:18:40.020Z,47.23
2023-05-08T05:19:12.453Z,47.71
2023-05-08T05:19:47.449Z,47.56
2023-05-08T05:20:19.965Z,47.59
2023-05-08T05:20:52.646Z,47.60
2023-05-08T05:21:28.363Z,47.25
2023-05-08T05:22:01.144Z,47.50
2023-05-08T05:22:33.598Z,47.25
2023-05-08T05:23:11.571Z,47.54
2023-05-08T05:23:44.890Z,47.54
2023-05-08T05:24:17.210Z,47.54
2023-05-08T05:24:52.167Z,47.27
2023-05-08T05:25:24.796Z,47.63
2023-05-08T05:25:59.985Z,47.39
2023-05-08T05:26:33.222Z,47.36
2023-05-08T05:27:10.000Z,47.85
2023-05-08T05:27:42.322Z,47.39
2023-05-08T05:28:15.862Z,47.71
2023-05-08T05:28:51.534Z,47.46
2023-05-08T05:29:24.315Z,47.78
2023-05-08T05:29:57.885Z,47.45
2023-05-08T05:30:33.534Z,47.58
2023-05-08T05:31:06.061Z,47.43
2023-05-08T05:31:38.647Z,47.80
2023-05-08T05:32:11.870Z,47.61
2023-05-08T05:32:47.104Z,47.56
2023-05-08T05:33:19.546Z,47.47
2023-05-08T05:33:52.234Z,47.84
2023-05-08T05:34:27.910Z,47.48
2023-05-08T05:35:00.281Z,47.48
2023-05-08T05:35:33.324Z,47.79
2023-05-08T05:36:09.862Z,47.43
2023-05-08T05:36:42.185Z,47.44
2023-05-08T05:37:14.748Z,47.62
2023-05-08T05:37:49.807Z,47.45
2023-05-08T05:38:25.754Z,47.61
2023-05-08T05:38:58.622Z,47.36
2023-05-08T05:39:34.222Z,47.52
2023-05-08T05:40:08.281Z,47.67
2023-05-08T05:40:41.983Z,47.68
2023-05-08T05:41:16.930Z,47.95
2023-05-08T05:41:49.506Z,47.50
2023-05-08T05:42:24.626Z,47.66
2023-05-08T05:42:57.047Z,47.52
2023-05-08T05:43:29.383Z,47.49
2023-05-08T05:44:04.485Z,47.87
2023-05-08T05:44:37.492Z,47.39
2023-05-08T05:45:10.762Z,47.64
2023-05-08T05:45:47.783Z,47.49
2023-05-08T05:46:20.580Z,47.61
2023-05-08T05:46:53.210Z,47.59
2023-05-08T05:47:28.412Z,47.43
2023-05-08T05:48:00.852Z,47.20
2023-05-08T05:48:33.464Z,47.12
2023-05-08T05:49:08.487Z,47.83
2023-05-08T05:49:43.259Z,47.34
2023-05-08T05:50:18.432Z,47.83
2023-05-08T05:50:54.413Z,47.66
2023-05-08T05:51:27.808Z,47.75
2023-05-08T05:52:00.719Z,47.65
2023-05-08T05:52:35.665Z,47.44
2023-05-08T05:53:08.113Z,47.45
2023-05-08T05:53:43.916Z,47.92
2023-05-08T05:54:18.918Z,47.42
2023-05-08T05:54:51.270Z,47.57
2023-05-08T05:55:26.901Z,47.72
2023-05-08T05:55:59.514Z,47.54
2023-05-08T05:56:31.845Z,47.58
2023-05-08T05:57:07.958Z,47.49
2023-05-08T05:57:40.348Z,47.68
2023-05-08T05:58:12.686Z,47.55
2023-05-08T05:58:47.638Z,47.54
2023-05-08T05:59:20.124Z,47.31
2023-05-08T05:59:55.109Z,47.39
2023-05-08T06:00:28.354Z,47.37
2023-05-08T06:01:02.324Z,47.58
2023-05-08T06:01:38.878Z,47.28
2023-05-08T06:02:14.697Z,47.32
2023-05-08T06:02:47.292Z,47.65
2023-05-08T06:03:24.455Z,47.75
2023-05-08T06:03:57.054Z,47.79
2023-05-08T06:04:29.651Z,47.69
2023-05-08T06:05:05.779Z,47.75
2023-05-08T06:05:38.350Z,47.54
2023-05-08T06:06:10.703Z,47.55
2023-05-08T06:06:45.617Z,47.45
2023-05-08T06:07:18.001Z,47.57
2023-05-08T06:07:50.426Z,47.54
2023-05-08T06:08:25.341Z,47.37
2023-05-08T06:09:00.278Z,47.30
2023-05-08T06:09:32.672Z,47.32
2023-05-08T06:10:08.715Z,47.29
2023-05-08T06:10:41.666Z,47.64
2023-05-08T06:11:14.570Z,47.63
2023-05-08T06:11:49.572Z,47.75
2023-05-08T06:12:22.250Z,47.45
2023-05-08T06:12:57.412Z,47.32
2023-05-08T06:13:31.775Z,47.37
2023-05-08T06:14:04.319Z,47.41
2023-05-08T06:14:39.550Z,47.59
2023-05-08T06:15:13.055Z,47.53
2023-05-08T06:15:46.735Z,47.71
2023-05-08T06:16:23.398Z,47.65
2023-05-08T06:16:56.093Z,47.61
2023-05-08T06:17:28.453Z,47.42
2023-05-08T06:18:03.470Z,47.44
2023-05-08T06:18:35.880Z,47.72
2023-05-08T06:19:08.511Z,47.67
2023-05-08T06:19:43.520Z,47.66
2023-05-08T06:20:15.921Z,47.96
2023-05-08T06:20:48.305Z,47.49
2023-05-08T06:21:23.269Z,47.93
2023-05-08T06:21:55.809Z,47.92
2023-05-08T06:22:29.545Z,47.49
2023-05-08T06:23:04.495Z,47.72
2023-05-08T06:23:36.829Z,47.69
2023-05-08T06:24:11.864Z,48.01
2023-05-08T06:24:47.253Z,47.72
2023-05-08T06:25:20.092Z,47.55
2023-05-08T06:25:52.408Z,47.61
2023-05-08T06:26:27.425Z,47.85
2023-05-08T06:26:59.746Z,48.09
2023-05-08T06:27:32.133Z,48.07
2023-05-08T06:28:08.360Z,47.75
2023-05-08T06:28:40.665Z,47.81
2023-05-08T06:29:13.051Z,47.66
2023-05-08T06:29:48.050Z,47.95
2023-05-08T06:30:20.774Z,47.81
2023-05-08T06:30:53.259Z,47.89
2023-05-08T06:31:28.354Z,47.87
2023-05-08T06:32:01.036Z,48.21
2023-05-08T06:32:33.458Z,48.02
2023-05-08T06:33:08.419Z,47.87
2023-05-08T06:33:40.736Z,48.09
2023-05-08T06:34:13.286Z,48.31
2023-05-08T06:34:48.274Z,48.14
2023-05-08T06:35:20.722Z,48.09
2023-05-08T06:35:55.983Z,48.28
2023-05-08T06:36:28.328Z,48.13
2023-05-08T06:37:00.742Z,47.91
2023-05-08T06:37:35.722Z,48.12
2023-05-08T06:38:08.081Z,48.41
2023-05-08T06:38:40.436Z,48.09
2023-05-08T06:39:18.618Z,47.91
2023-05-08T06:40:00.307Z,48.32
2023-05-08T06:40:46.689Z,48.34
2023-05-08T06:41:18.996Z,47.97
2023-05-08T06:41:51.289Z,48.14
2023-05-08T06:42:36.633Z,48.31
2023-05-08T06:43:08.950Z,48.36
2023-05-08T06:43:43.880Z,48.32
2023-05-08T06:44:16.435Z,48.14
2023-05-08T06:44:53.815Z,48.38
2023-05-08T06:45:26.373Z,48.13
2023-05-08T06:45:58.705Z,48.29
2023-05-08T06:46:33.822Z,48.11
2023-05-08T06:47:06.260Z,47.89
2023-05-08T06:47:38.935Z,48.23
2023-05-08T06:48:13.923Z,48.07
2023-05-08T06:48:46.223Z,48.26
2023-05-08T06:49:18.518Z,48.27
2023-05-08T06:49:54.198Z,48.46
2023-05-08T06:50:26.549Z,48.09
2023-05-08T06:50:59.316Z,48.34
2023-05-08T06:51:35.782Z,48.28
2023-05-08T06:52:08.167Z,48.56
2023-05-08T06:52:40.762Z,48.36
2023-05-08T06:53:15.971Z,48.31
2023-05-08T06:53:48.270Z,48.27
2023-05-08T06:54:25.806Z,48.63
2023-05-08T06:54:58.117Z,48.59
2023-05-08T06:55:33.095Z,48.58
2023-05-08T06:56:06.191Z,48.73
2023-05-08T06:56:41.141Z,48.57
2023-05-08T06:57:14.762Z,48.30
2023-05-08T06:57:47.069Z,48.26
2023-05-08T06:58:21.993Z,48.23
2023-05-08T06:59:07.127Z,48.06
2023-05-08T06:59:43.125Z,48.47
2023-05-08T07:00:16.496Z,48.16
2023-05-08T07:00:48.804Z,48.40
2023-05-08T07:01:24.250Z,48.33
2023-05-08T07:01:56.636Z,48.35
2023-05-08T07:02:31.673Z,48.61
2023-05-08T07:03:04.296Z,48.41
2023-05-08T07:03:37.203Z,48.27
2023-05-08T07:04:09.552Z,48.14
2023-05-08T07:04:44.636Z,48.48
2023-05-08T07:05:18.272Z,48.09
2023-05-08T07:05:53.387Z,48.16
2023-05-08T07:06:25.702Z,48.36
2023-05-08T07:06:58.052Z,48.75
2023-05-08T07:07:33.613Z,48.38
2023-05-08T07:08:06.006Z,48.60
2023-05-08T07:08:40.978Z,48.65
2023-05-08T07:09:13.315Z,48.45
2023-05-08T07:09:48.250Z,48.45
2023-05-08T07:10:23.331Z,48.35
2023-05-08T07:10:55.692Z,48.45
2023-05-08T07:11:28.012Z,48.30
2023-05-08T07:12:02.926Z,48.52
2023-05-08T07:12:35.250Z,48.70
2023-05-08T07:13:07.696Z,48.51
2023-05-08T07:13:43.440Z,48.33
2023-05-08T07:14:15.772Z,48.59
2023-05-08T07:14:50.873Z,48.36
2023-05-08T07:15:26.385Z,48.76
2023-05-08T07:16:01.925Z,48.40
2023-05-08T07:16:34.389Z,48.69
2023-05-08T07:17:07.119Z,48.65
2023-05-08T07:17:42.149Z,48.33
2023-05-08T07:18:14.688Z,48.73
2023-05-08T07:18:49.612Z,48.79
2023-05-08T07:19:22.698Z,48.48
2023-05-08T07:19:55.111Z,48.38
2023-05-08T07:20:30.189Z,48.55
2023-05-08T07:21:03.561Z,48.83
2023-05-08T07:21:38.908Z,48.67
2023-05-08T07:22:11.331Z,48.68
2023-05-08T07:22:43.768Z,48.85
2023-05-08T07:23:18.705Z,48.53
2023-05-08T07:23:51.954Z,48.59
2023-05-08T07:24:24.948Z,48.81
2023-05-08T07:25:02.633Z,48.84
2023-05-08T07:25:34.951Z,48.58
2023-05-08T07:26:08.536Z,48.72
2023-05-08T07:26:44.493Z,48.38
2023-05-08T07:27:16.973Z,48.21
2023-05-08T07:27:49.393Z,48.74
2023-05-08T07:28:24.447Z,48.26
2023-05-08T07:28:56.836Z,48.33
2023-05-08T07:29:31.807Z,48.65
2023-05-08T07:30:04.916Z,48.59
2023-05-08T07:30:39.830Z,48.63
2023-05-08T07:31:12.294Z,48.61
2023-05-08T07:31:46.104Z,48.63
2023-05-08T07:32:21.404Z,48.62
2023-05-08T07:32:53.839Z,48.38
2023-05-08T07:33:28.900Z,48.36